Time;durP1;ratioP1;P1;durP2;ratioP2;P2;SDS_P1;SDS_P2;PMS_P1;PMS_P2;Temp;Humidity;BMP_temperature;BMP_pressure;BME280_temperature;BME280_humidity;BME280_pressure;Samples;Min_cycle;Max_cycle;Signal;HPM_P1;HPM_P2
2023/03/13 00:01:11;;;;;;;124.03;116.23;;;;;;;-141.22;100.00;65034.22;4933835;28;20473;-49
2023/03/13 00:03:39;;;;;;;124.90;116.30;;;;;;;-141.22;100.00;65034.22;4934413;29;20428;-45
2023/03/13 00:06:08;;;;;;;120.20;112.07;;;;;;;-141.22;100.00;65034.22;4934240;29;20463;-45
2023/03/13 00:08:36;;;;;;;120.70;113.40;;;;;;;-141.22;100.00;65034.22;4934150;29;20839;-45
2023/03/13 00:11:04;;;;;;;118.20;109.47;;;;;;;-141.22;100.00;65034.22;4933590;28;20465;-44
2023/03/13 00:13:33;;;;;;;120.37;111.43;;;;;;;-141.22;100.00;65034.22;4933756;29;20875;-46
2023/03/13 00:16:01;;;;;;;114.27;106.63;;;;;;;-141.22;100.00;65034.22;4933744;29;20487;-47
2023/03/13 00:18:29;;;;;;;125.03;116.47;;;;;;;-141.22;100.00;65034.22;4936986;29;20443;-44
2023/03/13 00:21:00;;;;;;;120.37;111.33;;;;;;;-141.22;100.00;65034.22;4936985;28;20523;-44
2023/03/13 00:23:30;;;;;;;116.30;109.00;;;;;;;-141.22;100.00;65034.22;4937320;29;20806;-44
2023/03/13 00:25:58;;;;;;;116.43;109.17;;;;;;;-141.22;100.00;65034.22;4937448;29;20822;-44
2023/03/13 00:28:28;;;;;;;114.53;106.27;;;;;;;-141.22;100.00;65034.22;4937229;29;20465;-45
2023/03/13 00:31:02;;;;;;;119.17;110.67;;;;;;;-141.22;100.00;65034.22;4937100;28;20472;-49
2023/03/13 00:33:31;;;;;;;115.43;107.23;;;;;;;-141.22;100.00;65034.22;4937042;29;20508;-45
2023/03/13 00:35:59;;;;;;;125.00;114.70;;;;;;;-141.22;100.00;65034.22;4936986;29;21024;-46
2023/03/13 00:38:29;;;;;;;115.83;108.33;;;;;;;-141.22;100.00;65034.22;4937098;29;20965;-45
2023/03/13 00:41:01;;;;;;;116.53;109.37;;;;;;;-141.22;100.00;65034.22;4936602;28;20464;-46
2023/03/13 00:43:29;;;;;;;119.40;111.00;;;;;;;-141.22;100.00;65034.22;4936872;29;20464;-45
2023/03/13 00:45:57;;;;;;;119.47;111.50;;;;;;;-141.22;100.00;65034.22;4937119;29;20536;-43
2023/03/13 00:48:25;;;;;;;118.13;110.53;;;;;;;-141.22;100.00;65034.22;4936977;29;20433;-49
2023/03/13 00:50:53;;;;;;;120.70;113.50;;;;;;;-141.22;100.00;65034.22;4936571;28;20475;-46
2023/03/13 00:53:21;;;;;;;118.03;111.13;;;;;;;-141.22;100.00;65034.22;4936435;29;20483;-45
2023/03/13 00:55:56;;;;;;;121.70;114.43;;;;;;;-141.22;100.00;65034.22;4936976;29;21004;-46
2023/03/13 00:58:27;;;;;;;118.07;111.10;;;;;;;-141.22;100.00;65034.22;4936921;29;20884;-44
2023/03/13 01:00:54;;;;;;;120.27;112.77;;;;;;;-141.22;100.00;65034.22;4936410;28;20468;-47
2023/03/13 01:03:25;;;;;;;126.17;117.07;;;;;;;-141.22;100.00;65034.22;4936557;29;20441;-48
2023/03/13 01:05:57;;;;;;;120.07;112.33;;;;;;;-141.22;100.00;65034.22;4936495;29;20463;-45
2023/03/13 01:08:25;;;;;;;119.47;111.90;;;;;;;-141.22;100.00;65034.22;4936824;29;20433;-44
2023/03/13 01:10:59;;;;;;;116.73;109.10;;;;;;;-141.22;100.00;65034.22;4936231;28;20839;-46
2023/03/13 01:13:27;;;;;;;117.90;110.40;;;;;;;-141.22;100.00;65034.22;4936385;29;21065;-45
2023/03/13 01:15:55;;;;;;;119.30;109.33;;;;;;;-141.22;100.00;65034.22;4936537;29;20452;-48
2023/03/13 01:18:22;;;;;;;115.57;108.30;;;;;;;-141.22;100.00;65034.22;4936359;29;20445;-43
2023/03/13 01:20:50;;;;;;;121.97;113.10;;;;;;;-141.22;100.00;65034.22;4935884;28;21069;-44
2023/03/13 01:23:18;;;;;;;118.27;110.40;;;;;;;-141.22;100.00;65034.22;4936249;29;20425;-44
2023/03/13 01:25:46;;;;;;;118.40;110.60;;;;;;;-141.22;100.00;65034.22;4936355;29;20460;-48
2023/03/13 01:28:15;;;;;;;123.30;116.40;;;;;;;-141.22;100.00;65034.22;4936084;29;20445;-46
2023/03/13 01:30:43;;;;;;;118.13;111.50;;;;;;;-141.22;100.00;65034.22;4935421;28;20468;-45
2023/03/13 01:33:10;;;;;;;119.80;113.00;;;;;;;-141.22;100.00;65034.22;4935712;29;20965;-44
2023/03/13 01:35:38;;;;;;;122.20;115.17;;;;;;;-141.22;100.00;65034.22;4935838;29;20480;-45
2023/03/13 01:38:06;;;;;;;124.17;114.77;;;;;;;-141.22;100.00;65034.22;4936265;29;20437;-47
2023/03/13 01:40:39;;;;;;;118.87;112.60;;;;;;;-141.22;100.00;65034.22;4935773;28;20467;-45
2023/03/13 01:43:20;;;;;;;122.50;115.37;;;;;;;-141.22;100.00;65034.22;4935856;29;20524;-46
2023/03/13 01:45:58;;;;;;;128.00;119.87;;;;;;;-141.22;100.00;65034.22;4936094;29;20460;-47
2023/03/13 01:48:36;;;;;;;131.23;123.43;;;;;;;-141.22;100.00;65034.22;4936125;29;20440;-45
2023/03/13 01:51:08;;;;;;;127.10;118.60;;;;;;;-141.22;100.00;65034.22;4935616;28;20464;-46
2023/03/13 01:53:39;;;;;;;129.40;122.03;;;;;;;-141.22;100.00;65034.22;4935765;29;20473;-47
2023/03/13 01:56:11;;;;;;;126.13;118.93;;;;;;;-141.22;100.00;65034.22;4935819;29;20511;-47
2023/03/13 01:58:40;;;;;;;132.33;124.10;;;;;;;-141.22;100.00;65034.22;4936011;29;20424;-44
2023/03/13 02:01:09;;;;;;;130.27;122.20;;;;;;;-141.22;100.00;65034.22;4935319;28;20468;-45
2023/03/13 02:03:37;;;;;;;130.60;121.93;;;;;;;-141.22;100.00;65034.22;4935474;29;20437;-44
2023/03/13 02:06:07;;;;;;;126.33;119.60;;;;;;;-141.22;100.00;65034.22;4935826;29;21025;-45
2023/03/13 02:08:40;;;;;;;124.77;116.57;;;;;;;-141.22;100.00;65034.22;4935703;29;20539;-48
2023/03/13 02:11:17;;;;;;;128.30;120.83;;;;;;;-141.22;100.00;65034.22;4935055;28;20464;-46
2023/03/13 02:13:47;;;;;;;129.40;120.23;;;;;;;-141.22;100.00;65034.22;4935396;29;20577;-45
2023/03/13 02:16:16;;;;;;;128.37;120.40;;;;;;;-141.22;100.00;65034.22;4935322;29;20464;-47
2023/03/13 02:18:44;;;;;;;127.67;120.47;;;;;;;-141.22;100.00;65034.22;4935236;29;20472;-44
2023/03/13 02:21:32;;;;;;;134.80;126.10;;;;;;;-141.22;100.00;65034.22;4934793;28;20468;-44
2023/03/13 02:24:07;;;;;;;132.03;124.23;;;;;;;-141.22;100.00;65034.22;4935471;29;20432;-47
2023/03/13 02:26:36;;;;;;;132.80;125.50;;;;;;;-141.22;100.00;65034.22;4935187;29;20460;-44
2023/03/13 02:29:04;;;;;;;135.10;127.77;;;;;;;-141.22;100.00;65034.22;4934986;29;20521;-46
2023/03/13 02:31:32;;;;;;;136.37;129.10;;;;;;;-141.22;100.00;65034.22;4934710;28;20468;-46
2023/03/13 02:34:01;;;;;;;142.70;133.80;;;;;;;-141.22;100.00;65034.22;4934989;29;21045;-46
2023/03/13 02:36:30;;;;;;;143.47;135.37;;;;;;;-141.22;100.00;65034.22;4934869;29;20471;-43
2023/03/13 02:39:04;;;;;;;138.57;130.00;;;;;;;-141.22;100.00;65034.22;4935150;29;20432;-47
2023/03/13 02:41:34;;;;;;;142.00;134.57;;;;;;;-141.22;100.00;65034.22;4934365;28;20468;-44
2023/03/13 02:44:04;;;;;;;139.17;131.80;;;;;;;-141.22;100.00;65034.22;4934910;29;20938;-44
2023/03/13 02:46:45;;;;;;;145.23;136.43;;;;;;;-141.22;100.00;65034.22;4934732;29;20460;-45
2023/03/13 02:49:25;;;;;;;152.33;144.13;;;;;;;-141.22;100.00;65034.22;4934881;29;20433;-43
2023/03/13 02:51:54;;;;;;;150.10;141.80;;;;;;;-141.22;100.00;65034.22;4938282;28;21101;-45
2023/03/13 02:54:27;;;;;;;156.47;148.57;;;;;;;-141.22;100.00;65034.22;4953933;28;20474;-46
2023/03/13 02:56:57;;;;;;;154.23;146.80;;;;;;;-141.22;100.00;65034.22;4953843;28;20459;-45
2023/03/13 02:59:26;;;;;;;160.23;151.20;;;;;;;-141.22;100.00;65034.22;4953943;28;20522;-45
2023/03/13 03:01:54;;;;;;;150.97;143.03;;;;;;;-141.22;100.00;65034.22;4953265;28;20459;-47
2023/03/13 03:04:24;;;;;;;153.40;145.97;;;;;;;-141.22;100.00;65034.22;4953698;28;20434;-49
2023/03/13 03:06:52;;;;;;;154.87;146.50;;;;;;;-141.22;100.00;65034.22;4953583;28;20547;-44
2023/03/13 03:09:21;;;;;;;149.93;142.10;;;;;;;-141.22;100.00;65034.22;4953729;28;20443;-47
2023/03/13 03:11:49;;;;;;;152.10;144.40;;;;;;;-141.22;100.00;65034.22;4953006;28;20993;-46
2023/03/13 03:14:17;;;;;;;157.40;148.90;;;;;;;-141.22;100.00;65034.22;4953702;28;20487;-45
2023/03/13 03:16:46;;;;;;;152.67;145.30;;;;;;;-141.22;100.00;65034.22;4953633;28;20460;-46
2023/03/13 03:19:14;;;;;;;160.00;149.67;;;;;;;-141.22;100.00;65034.22;4953616;28;20435;-49
2023/03/13 03:21:42;;;;;;;155.70;147.50;;;;;;;-141.22;100.00;65034.22;4953006;28;20825;-45
2023/03/13 03:24:10;;;;;;;157.30;148.90;;;;;;;-141.22;100.00;65034.22;4953802;28;20524;-47
2023/03/13 03:26:38;;;;;;;163.80;154.53;;;;;;;-141.22;100.00;65034.22;4953593;28;20487;-47
2023/03/13 03:29:07;;;;;;;159.93;151.80;;;;;;;-141.22;100.00;65034.22;4953545;28;20491;-45
2023/03/13 03:31:34;;;;;;;155.00;145.63;;;;;;;-141.22;100.00;65034.22;4952938;28;20467;-44
2023/03/13 03:34:03;;;;;;;157.00;148.20;;;;;;;-141.22;100.00;65034.22;4953674;28;20534;-49
2023/03/13 03:36:31;;;;;;;164.57;155.67;;;;;;;-141.22;100.00;65034.22;4953191;28;20542;-45
2023/03/13 03:38:59;;;;;;;157.73;149.73;;;;;;;-141.22;100.00;65034.22;4953505;28;20443;-44
2023/03/13 03:41:26;;;;;;;157.53;148.50;;;;;;;-141.22;100.00;65034.22;4952834;28;20471;-48
2023/03/13 03:43:54;;;;;;;163.13;154.23;;;;;;;-141.22;100.00;65034.22;4953371;28;20494;-47
2023/03/13 03:46:22;;;;;;;155.57;146.90;;;;;;;-141.22;100.00;65034.22;4953255;28;20463;-44
2023/03/13 03:48:49;;;;;;;159.37;151.23;;;;;;;-141.22;100.00;65034.22;4953568;28;20446;-48
2023/03/13 03:51:18;;;;;;;158.73;150.13;;;;;;;-141.22;100.00;65034.22;4952965;28;20468;-44
2023/03/13 03:53:46;;;;;;;158.73;149.53;;;;;;;-141.22;100.00;65034.22;4956733;28;20494;-44
2023/03/13 03:56:14;;;;;;;153.50;145.30;;;;;;;-141.22;100.00;65034.22;4956923;28;20490;-49
2023/03/13 03:58:41;;;;;;;159.20;150.03;;;;;;;-141.22;100.00;65034.22;4957126;28;20763;-45
2023/03/13 04:01:09;;;;;;;154.50;146.00;;;;;;;-141.22;100.00;65034.22;4956653;28;20467;-49
2023/03/13 04:03:37;;;;;;;153.00;143.67;;;;;;;-141.22;100.00;65034.22;4956933;28;20442;-44
2023/03/13 04:06:05;;;;;;;159.30;150.20;;;;;;;-141.22;100.00;65034.22;4956853;28;20984;-47
2023/03/13 04:08:34;;;;;;;159.60;150.50;;;;;;;-141.22;100.00;65034.22;4956894;28;20435;-44
2023/03/13 04:11:02;;;;;;;155.77;148.07;;;;;;;-141.22;100.00;65034.22;4956438;28;20468;-45
2023/03/13 04:13:30;;;;;;;154.53;145.67;;;;;;;-141.22;100.00;65034.22;4956518;28;20443;-47
2023/03/13 04:15:58;;;;;;;159.63;151.20;;;;;;;-141.22;100.00;65034.22;4956795;28;20475;-45
2023/03/13 04:18:25;;;;;;;158.00;149.63;;;;;;;-141.22;100.00;65034.22;4956839;28;20451;-46
2023/03/13 04:21:01;;;;;;;158.57;149.97;;;;;;;-141.22;100.00;65034.22;4956329;28;20475;-44
2023/03/13 04:23:29;;;;;;;157.17;148.60;;;;;;;-141.22;100.00;65034.22;4956529;28;20866;-45
2023/03/13 04:25:58;;;;;;;157.13;148.73;;;;;;;-141.22;100.00;65034.22;4956419;28;20549;-47
2023/03/13 04:28:25;;;;;;;159.43;150.63;;;;;;;-141.22;100.00;65034.22;4956498;28;20947;-44
2023/03/13 04:30:56;;;;;;;159.87;150.50;;;;;;;-141.22;100.00;65034.22;4955868;28;20494;-47
2023/03/13 04:33:23;;;;;;;158.47;148.40;;;;;;;-141.22;100.00;65034.22;4956397;28;20427;-52
2023/03/13 04:35:51;;;;;;;158.77;150.23;;;;;;;-141.22;100.00;65034.22;4956152;28;21015;-47
2023/03/13 04:38:19;;;;;;;154.50;146.50;;;;;;;-141.22;100.00;65034.22;4956374;28;20439;-47
2023/03/13 04:40:47;;;;;;;154.90;146.77;;;;;;;-141.22;100.00;65034.22;4955740;28;20474;-45
2023/03/13 04:43:16;;;;;;;157.27;148.60;;;;;;;-141.22;100.00;65034.22;4956134;28;20439;-44
2023/03/13 04:45:44;;;;;;;153.43;144.90;;;;;;;-141.22;100.00;65034.22;4956214;28;20456;-44
2023/03/13 04:48:11;;;;;;;155.00;145.90;;;;;;;-141.22;100.00;65034.22;4956314;28;20855;-48
2023/03/13 04:50:39;;;;;;;150.73;142.43;;;;;;;-141.22;100.00;65034.22;4955963;28;21028;-45
2023/03/13 04:53:07;;;;;;;152.63;143.00;;;;;;;-141.22;100.00;65034.22;4947509;28;20436;-49
2023/03/13 04:55:35;;;;;;;154.90;146.20;;;;;;;-141.22;100.00;65034.22;4942119;29;20476;-49
2023/03/13 04:58:02;;;;;;;156.50;148.60;;;;;;;-141.22;100.00;65034.22;4936682;29;20444;-45
2023/03/13 05:00:31;;;;;;;155.80;147.67;;;;;;;-141.22;100.00;65034.22;4936508;28;20460;-47
2023/03/13 05:02:59;;;;;;;158.50;150.53;;;;;;;-141.22;100.00;65034.22;4934850;29;20437;-48
2023/03/13 05:05:27;;;;;;;156.40;147.30;;;;;;;-141.22;100.00;65034.22;4936120;29;20456;-45
2023/03/13 05:07:54;;;;;;;157.90;149.67;;;;;;;-141.22;100.00;65034.22;4936951;29;20444;-47
2023/03/13 05:10:22;;;;;;;154.77;147.23;;;;;;;-141.22;100.00;65034.22;4936178;28;20500;-44
2023/03/13 05:12:50;;;;;;;154.93;146.57;;;;;;;-141.22;100.00;65034.22;4936543;29;20433;-46
2023/03/13 05:15:18;;;;;;;161.87;152.10;;;;;;;-141.22;100.00;65034.22;4936411;29;20456;-45
2023/03/13 05:17:47;;;;;;;152.07;144.57;;;;;;;-141.22;100.00;65034.22;4936616;29;20558;-48
2023/03/13 05:20:15;;;;;;;153.67;145.17;;;;;;;-141.22;100.00;65034.22;4936125;28;20519;-45
2023/03/13 05:22:42;;;;;;;154.40;145.47;;;;;;;-141.22;100.00;65034.22;4936447;29;20504;-49
2023/03/13 05:25:10;;;;;;;154.67;145.80;;;;;;;-141.22;100.00;65034.22;4936459;29;20464;-45
2023/03/13 05:27:38;;;;;;;155.80;147.13;;;;;;;-141.22;100.00;65034.22;4936568;29;20441;-47
2023/03/13 05:30:06;;;;;;;152.43;144.80;;;;;;;-141.22;100.00;65034.22;4935988;28;20492;-45
2023/03/13 05:32:34;;;;;;;152.20;144.00;;;;;;;-141.22;100.00;65034.22;4936087;29;20497;-45
2023/03/13 05:35:03;;;;;;;152.50;144.77;;;;;;;-141.22;100.00;65034.22;4936249;29;20500;-45
2023/03/13 05:37:31;;;;;;;151.40;143.60;;;;;;;-141.22;100.00;65034.22;4936411;29;20484;-45
2023/03/13 05:39:59;;;;;;;155.30;147.67;;;;;;;-141.22;100.00;65034.22;4935872;28;20459;-45
2023/03/13 05:42:27;;;;;;;151.50;144.50;;;;;;;-141.22;100.00;65034.22;4936016;29;20535;-45
2023/03/13 05:44:54;;;;;;;159.90;151.30;;;;;;;-141.22;100.00;65034.22;4936094;29;20891;-46
2023/03/13 05:47:22;;;;;;;156.53;149.07;;;;;;;-141.22;100.00;65034.22;4936120;29;20847;-45
2023/03/13 05:49:49;;;;;;;159.07;150.70;;;;;;;-141.22;100.00;65034.22;4936168;29;20445;-47
2023/03/13 05:52:19;;;;;;;157.33;149.97;;;;;;;-141.22;100.00;65034.22;4935256;28;20534;-45
2023/03/13 05:54:46;;;;;;;155.93;148.93;;;;;;;-141.22;100.00;65034.22;4935995;29;20784;-44
2023/03/13 05:57:14;;;;;;;154.90;147.80;;;;;;;-141.22;100.00;65034.22;4935832;29;20480;-48
2023/03/13 05:59:42;;;;;;;154.23;147.00;;;;;;;-141.22;100.00;65034.22;4935750;29;20444;-44
2023/03/13 06:02:09;;;;;;;152.47;145.00;;;;;;;-141.22;100.00;65034.22;4935312;28;21030;-44
2023/03/13 06:04:38;;;;;;;157.80;150.80;;;;;;;-141.22;100.00;65034.22;4935908;29;21098;-45
2023/03/13 06:07:05;;;;;;;156.60;149.40;;;;;;;-141.22;100.00;65034.22;4935517;29;20480;-47
2023/03/13 06:09:34;;;;;;;160.97;153.83;;;;;;;-141.22;100.00;65034.22;4935645;29;20439;-46
2023/03/13 06:12:03;;;;;;;160.37;153.17;;;;;;;-141.22;100.00;65034.22;4934862;28;20460;-44
2023/03/13 06:14:30;;;;;;;162.03;154.73;;;;;;;-141.22;100.00;65034.22;4935617;29;20440;-45
2023/03/13 06:16:58;;;;;;;156.20;149.30;;;;;;;-141.22;100.00;65034.22;4935514;29;20484;-44
2023/03/13 06:19:26;;;;;;;163.10;154.80;;;;;;;-141.22;100.00;65034.22;4935469;29;20954;-46
2023/03/13 06:21:53;;;;;;;157.60;151.00;;;;;;;-141.22;100.00;65034.22;4934951;28;20464;-44
2023/03/13 06:24:21;;;;;;;161.63;154.67;;;;;;;-141.22;100.00;65034.22;4935422;29;20437;-45
2023/03/13 06:26:51;;;;;;;164.10;157.50;;;;;;;-141.22;100.00;65034.22;4935264;29;20456;-44
2023/03/13 06:29:18;;;;;;;158.67;152.00;;;;;;;-141.22;100.00;65034.22;4935285;29;20473;-43
2023/03/13 06:31:46;;;;;;;168.07;161.33;;;;;;;-141.22;100.00;65034.22;4934701;28;20472;-43
2023/03/13 06:34:14;;;;;;;165.33;158.53;;;;;;;-141.22;100.00;65034.22;4935442;29;20439;-47
2023/03/13 06:36:42;;;;;;;160.73;154.30;;;;;;;-141.22;100.00;65034.22;4934958;29;20488;-46
2023/03/13 06:39:09;;;;;;;157.60;150.87;;;;;;;-141.22;100.00;65034.22;4935131;29;20867;-45
2023/03/13 06:41:37;;;;;;;161.30;154.70;;;;;;;-141.22;100.00;65034.22;4934591;28;20465;-47
2023/03/13 06:44:06;;;;;;;162.80;156.10;;;;;;;-141.22;100.00;65034.22;4935193;29;20437;-43
2023/03/13 06:46:34;;;;;;;161.30;154.53;;;;;;;-141.22;100.00;65034.22;4934929;29;20449;-44
2023/03/13 06:49:04;;;;;;;163.13;156.67;;;;;;;-141.22;100.00;65034.22;4934993;29;20491;-44
2023/03/13 06:51:32;;;;;;;159.60;153.00;;;;;;;-141.22;100.00;65034.22;4934314;28;20496;-44
2023/03/13 06:54:02;;;;;;;160.50;153.97;;;;;;;-141.22;100.00;65034.22;4934910;29;20510;-45
2023/03/13 06:56:31;;;;;;;171.30;164.50;;;;;;;-141.22;100.00;65034.22;4934956;29;20481;-43
2023/03/13 06:58:58;;;;;;;160.17;153.90;;;;;;;-141.22;100.00;65034.22;4935006;29;20439;-44
2023/03/13 07:01:28;;;;;;;162.10;155.70;;;;;;;-141.22;100.00;65034.22;4934203;28;20472;-45
2023/03/13 07:03:55;;;;;;;171.43;164.73;;;;;;;-141.22;100.00;65034.22;4934921;29;20803;-45
2023/03/13 07:06:23;;;;;;;160.23;153.83;;;;;;;-141.22;100.00;65034.22;4934509;29;20448;-45
2023/03/13 07:08:51;;;;;;;165.77;159.20;;;;;;;-141.22;100.00;65034.22;4935078;29;20433;-45
2023/03/13 07:11:18;;;;;;;161.70;155.37;;;;;;;-141.22;100.00;65034.22;4933703;28;20487;-43
2023/03/13 07:13:46;;;;;;;168.90;161.90;;;;;;;-141.22;100.00;65034.22;4934780;29;20788;-48
2023/03/13 07:16:14;;;;;;;172.77;166.17;;;;;;;-141.22;100.00;65034.22;4934329;29;20453;-44
2023/03/13 07:18:43;;;;;;;170.60;164.00;;;;;;;-141.22;100.00;65034.22;4934547;29;20436;-44
2023/03/13 07:21:11;;;;;;;176.47;169.67;;;;;;;-141.22;100.00;65034.22;4934047;28;20464;-45
2023/03/13 07:23:39;;;;;;;179.53;172.43;;;;;;;-141.22;100.00;65034.22;4934601;29;20879;-45
2023/03/13 07:26:10;;;;;;;171.13;164.50;;;;;;;-141.22;100.00;65034.22;4934259;29;20463;-43
2023/03/13 07:28:38;;;;;;;172.03;165.13;;;;;;;-141.22;100.00;65034.22;4934284;29;20753;-45
2023/03/13 07:31:08;;;;;;;173.37;166.47;;;;;;;-141.22;100.00;65034.22;4934010;28;20477;-45
2023/03/13 07:33:35;;;;;;;171.13;164.13;;;;;;;-141.22;100.00;65034.22;4934231;29;20451;-44
2023/03/13 07:36:05;;;;;;;173.40;166.03;;;;;;;-141.22;100.00;65034.22;4934451;29;20473;-44
2023/03/13 07:38:34;;;;;;;174.53;167.50;;;;;;;-141.22;100.00;65034.22;4934582;29;20468;-46
2023/03/13 07:41:01;;;;;;;176.03;168.67;;;;;;;-141.22;100.00;65034.22;4934125;28;20461;-44
2023/03/13 07:43:30;;;;;;;180.73;173.43;;;;;;;-141.22;100.00;65034.22;4934233;29;20772;-45
2023/03/13 07:45:59;;;;;;;187.47;179.87;;;;;;;-141.22;100.00;65034.22;4934180;29;20468;-47
2023/03/13 07:48:30;;;;;;;184.80;177.20;;;;;;;-141.22;100.00;65034.22;4934560;29;20480;-44
2023/03/13 07:50:58;;;;;;;186.63;178.67;;;;;;;-141.22;100.00;65034.22;4934127;28;20472;-44
2023/03/13 07:53:27;;;;;;;184.30;176.90;;;;;;;-141.22;100.00;65034.22;4934086;29;20440;-45
2023/03/13 07:55:58;;;;;;;187.97;180.30;;;;;;;-141.22;100.00;65034.22;4934270;29;20472;-44
2023/03/13 07:58:27;;;;;;;193.43;185.83;;;;;;;-141.22;100.00;65034.22;4934160;29;20484;-43
2023/03/13 08:00:55;;;;;;;189.63;181.73;;;;;;;-141.22;100.00;65034.22;4933993;28;20461;-45
2023/03/13 08:03:23;;;;;;;198.70;190.70;;;;;;;-141.22;100.00;65034.22;4934131;29;20429;-49
2023/03/13 08:05:58;;;;;;;201.00;192.67;;;;;;;-141.22;100.00;65034.22;4934603;29;20460;-46
2023/03/13 08:08:28;;;;;;;207.57;199.40;;;;;;;-141.22;100.00;65034.22;4934250;29;20428;-46
2023/03/13 08:11:00;;;;;;;211.60;203.17;;;;;;;-141.22;100.00;65034.22;4933643;28;20496;-47
2023/03/13 08:13:28;;;;;;;212.03;203.43;;;;;;;-141.22;100.00;65034.22;4933952;29;20504;-46
2023/03/13 08:16:03;;;;;;;214.53;205.93;;;;;;;-141.22;100.00;65034.22;4934006;29;20464;-45
2023/03/13 08:18:33;;;;;;;216.27;207.47;;;;;;;-141.22;100.00;65034.22;4934217;29;20551;-48
2023/03/13 08:21:02;;;;;;;217.27;208.57;;;;;;;-141.22;100.00;65034.22;4933612;28;20489;-45
2023/03/13 08:23:32;;;;;;;223.70;214.60;;;;;;;-141.22;100.00;65034.22;4933781;29;20815;-45
2023/03/13 08:26:05;;;;;;;233.40;223.77;;;;;;;-141.22;100.00;65034.22;4934180;29;20471;-43
2023/03/13 08:28:34;;;;;;;236.13;226.57;;;;;;;-141.22;100.00;65034.22;4934037;29;20606;-46
2023/03/13 08:31:07;;;;;;;234.33;224.93;;;;;;;-141.22;100.00;65034.22;4933647;28;20472;-44
2023/03/13 08:33:35;;;;;;;236.40;226.87;;;;;;;-141.22;100.00;65034.22;4933576;29;20429;-48
2023/03/13 08:36:16;;;;;;;249.90;239.90;;;;;;;-141.22;100.00;65034.22;4933914;29;20468;-47
2023/03/13 08:38:45;;;;;;;245.43;235.63;;;;;;;-141.22;100.00;65034.22;4935633;29;20479;-47
2023/03/13 08:41:14;;;;;;;250.30;240.30;;;;;;;-141.22;100.00;65034.22;4936917;28;20523;-45
2023/03/13 08:43:42;;;;;;;256.80;246.43;;;;;;;-141.22;100.00;65034.22;4936928;29;20439;-49
2023/03/13 08:46:10;;;;;;;264.10;253.70;;;;;;;-141.22;100.00;65034.22;4936820;29;20460;-45
2023/03/13 08:48:38;;;;;;;262.00;251.60;;;;;;;-141.22;100.00;65034.22;4937145;29;20951;-47
2023/03/13 08:51:08;;;;;;;267.57;256.80;;;;;;;-141.22;100.00;65034.22;4936688;28;20911;-45
2023/03/13 08:53:38;;;;;;;264.13;253.43;;;;;;;-141.22;100.00;65034.22;4936975;29;20462;-44
2023/03/13 08:56:08;;;;;;;265.87;255.37;;;;;;;-141.22;100.00;65034.22;4936794;29;20472;-45
2023/03/13 08:58:36;;;;;;;267.07;255.83;;;;;;;-141.22;100.00;65034.22;4936874;29;21077;-46
2023/03/13 09:01:06;;;;;;;261.03;250.27;;;;;;;-141.22;100.00;65034.22;4936470;28;20477;-47
2023/03/13 09:03:34;;;;;;;271.53;260.63;;;;;;;-141.22;100.00;65034.22;4936793;29;20443;-45
2023/03/13 09:06:02;;;;;;;283.60;272.03;;;;;;;-141.22;100.00;65034.22;4936768;29;20468;-48
2023/03/13 09:08:31;;;;;;;265.10;254.40;;;;;;;-141.22;100.00;65034.22;4936860;29;20436;-47
2023/03/13 09:11:00;;;;;;;272.23;261.13;;;;;;;-141.22;100.00;65034.22;4936276;28;20463;-45
2023/03/13 09:13:30;;;;;;;270.47;259.13;;;;;;;-141.22;100.00;65034.22;4936474;29;20429;-47
2023/03/13 09:15:59;;;;;;;275.90;264.70;;;;;;;-141.22;100.00;65034.22;4936838;29;20456;-45
2023/03/13 09:18:28;;;;;;;273.47;261.97;;;;;;;-141.22;100.00;65034.22;4936545;29;20564;-44
2023/03/13 09:20:56;;;;;;;279.67;267.77;;;;;;;-141.22;100.00;65034.22;4936231;28;20460;-46
2023/03/13 09:23:25;;;;;;;300.47;287.43;;;;;;;-141.22;100.00;65034.22;4936445;29;20433;-46
2023/03/13 09:25:54;;;;;;;291.20;278.80;;;;;;;-141.22;100.00;65034.22;4936387;29;20460;-49
2023/03/13 09:28:22;;;;;;;300.73;287.93;;;;;;;-141.22;100.00;65034.22;4936555;29;20429;-46
2023/03/13 09:30:51;;;;;;;297.70;285.10;;;;;;;-141.22;100.00;65034.22;4936149;28;20488;-48
2023/03/13 09:33:21;;;;;;;285.90;273.50;;;;;;;-141.22;100.00;65034.22;4936166;29;20443;-45
2023/03/13 09:35:50;;;;;;;300.37;287.23;;;;;;;-141.22;100.00;65034.22;4936195;29;20479;-48
2023/03/13 09:38:18;;;;;;;306.97;293.50;;;;;;;-141.22;100.00;65034.22;4936132;29;20535;-48
2023/03/13 09:40:48;;;;;;;307.90;294.20;;;;;;;-141.22;100.00;65034.22;4935826;28;20468;-45
2023/03/13 09:43:42;;;;;;;327.57;313.10;;;;;;;-141.22;100.00;65034.22;4936248;29;20425;-45
2023/03/13 09:46:18;;;;;;;323.73;309.33;;;;;;;-141.22;100.00;65034.22;4936124;29;20461;-45
2023/03/13 09:48:50;;;;;;;329.03;314.43;;;;;;;-141.22;100.00;65034.22;4936093;29;20432;-46
2023/03/13 09:51:21;;;;;;;340.80;326.03;;;;;;;-141.22;100.00;65034.22;4935049;28;20483;-46
2023/03/13 09:53:55;;;;;;;340.43;325.63;;;;;;;-141.22;100.00;65034.22;4936303;29;20433;-46
2023/03/13 09:56:25;;;;;;;343.17;327.97;;;;;;;-141.22;100.00;65034.22;4936052;29;20551;-50
2023/03/13 09:58:56;;;;;;;339.00;323.73;;;;;;;-141.22;100.00;65034.22;4936065;29;20480;-47
2023/03/13 10:01:30;;;;;;;342.90;327.50;;;;;;;-141.22;100.00;65034.22;4935257;28;20472;-45
2023/03/13 10:04:06;;;;;;;347.37;331.67;;;;;;;-141.22;100.00;65034.22;4939176;29;20426;-43
2023/03/13 10:06:40;;;;;;;352.30;335.70;;;;;;;-141.22;100.00;65034.22;4960477;29;20479;-45
2023/03/13 10:09:20;;;;;;;341.93;326.23;;;;;;;-141.22;100.00;65034.22;4961161;28;20429;-46
2023/03/13 10:11:55;;;;;;;332.57;317.37;;;;;;;-141.22;100.00;65034.22;4961392;28;20463;-45
2023/03/13 10:14:29;;;;;;;318.13;303.97;;;;;;;-141.22;100.00;65034.22;4960751;28;20996;-48
2023/03/13 10:17:04;;;;;;;298.50;284.90;;;;;;;-141.22;100.00;65034.22;4961447;28;20459;-49
2023/03/13 10:19:36;;;;;;;302.40;288.67;;;;;;;-141.22;100.00;65034.22;4960866;28;20459;-43
2023/03/13 10:22:12;;;;;;;273.90;260.80;;;;;;;-141.22;100.00;65034.22;4960099;28;20471;-43
2023/03/13 10:24:46;;;;;;;274.93;262.30;;;;;;;-141.22;100.00;65034.22;4960595;28;20427;-43
2023/03/13 10:27:15;;;;;;;267.60;255.00;;;;;;;-141.22;100.00;65034.22;4960837;28;20470;-45
2023/03/13 10:29:43;;;;;;;247.23;235.57;;;;;;;-141.22;100.00;65034.22;4960621;28;20438;-45
2023/03/13 10:32:14;;;;;;;243.17;231.93;;;;;;;-141.22;100.00;65034.22;4960206;28;20493;-46
2023/03/13 10:34:50;;;;;;;234.57;223.67;;;;;;;-141.22;100.00;65034.22;4960585;28;20859;-45
2023/03/13 10:37:22;;;;;;;226.83;216.83;;;;;;;-141.22;100.00;65034.22;4960969;28;20953;-43
2023/03/13 10:39:50;;;;;;;206.63;196.53;;;;;;;-141.22;100.00;65034.22;4960838;28;20471;-44
2023/03/13 10:42:23;;;;;;;199.00;189.67;;;;;;;-141.22;100.00;65034.22;4959155;28;20515;-45
2023/03/13 10:44:57;;;;;;;184.23;175.53;;;;;;;-141.22;100.00;65034.22;4959879;28;20427;-46
2023/03/13 10:47:27;;;;;;;177.83;169.23;;;;;;;-141.22;100.00;65034.22;4960556;28;20438;-46
2023/03/13 10:49:57;;;;;;;156.93;149.83;;;;;;;-141.22;100.00;65034.22;4960226;28;20436;-44